Alvear, Argentina
Current Conditions -  °F | °C
As of 4:00 PM on Tuesday 21 Oct 2014 (Local Time) from SARL Reporting Station
Clear Clear  
Wind Chill: 79°   Ceiling: Unl
Heat Index: 80°   Visibility: 6mi
Dew Point: 61°   Wind: 14mph
Humidity: 54%   Direction: 90°E
Pressure: 30.06"   Gusts: NA
Location:  29.1°S, 56.55°W
Report Text: SARL 211900Z 09012KT CAVOK 26/16 Q1018
Loading
Personal Weather Stations






























Interactive Weather Map
Tropical Storm Tracking
New forecast layout! Learn more

10-Day Weather Forecast

Advertisements
Track Severe Weather on mobile